Genoa City, Wisconsin
Current Conditions -  °F | °C
As of 4:55 AM on Monday 20 Oct 2014 (Local Time) from KBUU Reporting Station
Clear Clear  
Wind Chill: 40°   Ceiling: Unl
Heat Index: 43°   Visibility: 10mi
Dew Point: 41°   Wind: 6mph
Humidity: 92%   Direction: 240°WSW
Pressure: 29.79"   Gusts: NA
Location:  42.5°N, 88.33°W
Report Text: KBUU 200955Z AUTO 24005KT 10SM CLR 06/05 A2979 RMK AO2 T00630051
Loading
Personal Weather Stations






























Interactive Weather Map
Tropical Storm Tracking
New forecast layout! Learn more

10-Day Weather Forecast

Advertisements
Track Severe Weather on mobile